sensor_id;sensor_type;location;lat;lon;timestamp;P1;durP1;ratioP1;P2;durP2;ratioP2
13568;SDS011;6856;51.460;7.158;2023-11-19T00:00:18;0.53;;;0.53;;
13568;SDS011;6856;51.460;7.158;2023-11-19T00:02:52;0.60;;;0.60;;
13568;SDS011;6856;51.460;7.158;2023-11-19T00:05:27;1.00;;;0.70;;
13568;SDS011;6856;51.460;7.158;2023-11-19T00:08:01;3.87;;;0.93;;
13568;SDS011;6856;51.460;7.158;2023-11-19T00:10:37;0.83;;;0.80;;
13568;SDS011;6856;51.460;7.158;2023-11-19T00:13:12;0.87;;;0.80;;
13568;SDS011;6856;51.460;7.158;2023-11-19T00:15:47;0.90;;;0.90;;
13568;SDS011;6856;51.460;7.158;2023-11-19T00:18:21;1.10;;;1.00;;
13568;SDS011;6856;51.460;7.158;2023-11-19T00:20:56;1.03;;;0.93;;
13568;SDS011;6856;51.460;7.158;2023-11-19T00:23:30;2.37;;;1.30;;
13568;SDS011;6856;51.460;7.158;2023-11-19T00:26:04;1.70;;;1.27;;
13568;SDS011;6856;51.460;7.158;2023-11-19T00:28:38;1.60;;;1.20;;
13568;SDS011;6856;51.460;7.158;2023-11-19T00:31:11;1.40;;;1.07;;
13568;SDS011;6856;51.460;7.158;2023-11-19T00:33:45;1.40;;;1.17;;
13568;SDS011;6856;51.460;7.158;2023-11-19T00:36:22;1.20;;;1.10;;
13568;SDS011;6856;51.460;7.158;2023-11-19T00:38:56;1.63;;;1.17;;
13568;SDS011;6856;51.460;7.158;2023-11-19T00:41:31;1.83;;;1.07;;
13568;SDS011;6856;51.460;7.158;2023-11-19T00:44:05;3.27;;;1.60;;
13568;SDS011;6856;51.460;7.158;2023-11-19T00:46:39;0.97;;;0.93;;
13568;SDS011;6856;51.460;7.158;2023-11-19T00:49:13;1.50;;;1.40;;
13568;SDS011;6856;51.460;7.158;2023-11-19T00:51:48;1.43;;;1.10;;
13568;SDS011;6856;51.460;7.158;2023-11-19T00:54:22;1.23;;;1.00;;
13568;SDS011;6856;51.460;7.158;2023-11-19T00:56:57;1.33;;;1.20;;
13568;SDS011;6856;51.460;7.158;2023-11-19T00:59:33;2.07;;;1.17;;
13568;SDS011;6856;51.460;7.158;2023-11-19T01:02:06;1.63;;;1.20;;
13568;SDS011;6856;51.460;7.158;2023-11-19T01:04:39;1.03;;;1.00;;
13568;SDS011;6856;51.460;7.158;2023-11-19T01:07:14;1.23;;;1.13;;
13568;SDS011;6856;51.460;7.158;2023-11-19T01:09:49;3.67;;;1.43;;
13568;SDS011;6856;51.460;7.158;2023-11-19T01:12:23;1.20;;;1.10;;
13568;SDS011;6856;51.460;7.158;2023-11-19T01:14:58;1.77;;;1.30;;
13568;SDS011;6856;51.460;7.158;2023-11-19T01:17:32;1.30;;;1.20;;
13568;SDS011;6856;51.460;7.158;2023-11-19T01:20:07;1.57;;;1.40;;
13568;SDS011;6856;51.460;7.158;2023-11-19T01:22:45;1.53;;;1.20;;
13568;SDS011;6856;51.460;7.158;2023-11-19T01:25:20;1.60;;;1.20;;
13568;SDS011;6856;51.460;7.158;2023-11-19T01:27:54;5.60;;;1.23;;
13568;SDS011;6856;51.460;7.158;2023-11-19T01:33:29;1.63;;;0.80;;
13568;SDS011;6856;51.460;7.158;2023-11-19T01:36:03;2.07;;;1.20;;
13568;SDS011;6856;51.460;7.158;2023-11-19T01:38:41;1.00;;;0.90;;
13568;SDS011;6856;51.460;7.158;2023-11-19T01:41:16;1.27;;;0.80;;
13568;SDS011;6856;51.460;7.158;2023-11-19T01:43:49;0.70;;;0.70;;
13568;SDS011;6856;51.460;7.158;2023-11-19T01:46:23;0.83;;;0.83;;
13568;SDS011;6856;51.460;7.158;2023-11-19T01:49:00;0.90;;;0.80;;
13568;SDS011;6856;51.460;7.158;2023-11-19T01:51:35;1.03;;;0.93;;
13568;SDS011;6856;51.460;7.158;2023-11-19T01:54:11;0.63;;;0.63;;
13568;SDS011;6856;51.460;7.158;2023-11-19T01:56:47;1.13;;;0.80;;
13568;SDS011;6856;51.460;7.158;2023-11-19T01:59:21;0.80;;;0.80;;
13568;SDS011;6856;51.460;7.158;2023-11-19T02:01:57;0.80;;;0.80;;
13568;SDS011;6856;51.460;7.158;2023-11-19T02:04:32;0.80;;;0.80;;
13568;SDS011;6856;51.460;7.158;2023-11-19T02:07:08;0.80;;;0.70;;
13568;SDS011;6856;51.460;7.158;2023-11-19T02:09:44;0.90;;;0.90;;
13568;SDS011;6856;51.460;7.158;2023-11-19T02:12:18;1.27;;;1.00;;
13568;SDS011;6856;51.460;7.158;2023-11-19T02:14:52;1.03;;;0.87;;
13568;SDS011;6856;51.460;7.158;2023-11-19T02:17:27;1.23;;;0.90;;
13568;SDS011;6856;51.460;7.158;2023-11-19T02:20:03;1.77;;;0.90;;
13568;SDS011;6856;51.460;7.158;2023-11-19T02:22:42;1.33;;;0.90;;
13568;SDS011;6856;51.460;7.158;2023-11-19T02:25:19;2.27;;;1.10;;
13568;SDS011;6856;51.460;7.158;2023-11-19T02:28:03;1.33;;;0.90;;
13568;SDS011;6856;51.460;7.158;2023-11-19T02:30:39;0.93;;;0.80;;
13568;SDS011;6856;51.460;7.158;2023-11-19T02:33:13;1.43;;;1.00;;
13568;SDS011;6856;51.460;7.158;2023-11-19T02:35:46;3.30;;;1.20;;
13568;SDS011;6856;51.460;7.158;2023-11-19T02:38:20;1.83;;;0.90;;
13568;SDS011;6856;51.460;7.158;2023-11-19T02:40:54;1.87;;;0.90;;
13568;SDS011;6856;51.460;7.158;2023-11-19T02:43:29;2.00;;;1.00;;
13568;SDS011;6856;51.460;7.158;2023-11-19T02:46:05;1.83;;;0.93;;
13568;SDS011;6856;51.460;7.158;2023-11-19T02:48:42;1.30;;;0.83;;
13568;SDS011;6856;51.460;7.158;2023-11-19T02:51:17;1.70;;;0.93;;
13568;SDS011;6856;51.460;7.158;2023-11-19T02:53:51;1.30;;;1.00;;
13568;SDS011;6856;51.460;7.158;2023-11-19T02:56:24;1.90;;;1.10;;
13568;SDS011;6856;51.460;7.158;2023-11-19T02:59:00;2.73;;;1.30;;
13568;SDS011;6856;51.460;7.158;2023-11-19T03:01:39;3.03;;;1.30;;
13568;SDS011;6856;51.460;7.158;2023-11-19T03:04:15;4.33;;;1.50;;
13568;SDS011;6856;51.460;7.158;2023-11-19T03:06:51;2.53;;;1.40;;
13568;SDS011;6856;51.460;7.158;2023-11-19T03:09:25;2.17;;;1.07;;
13568;SDS011;6856;51.460;7.158;2023-11-19T03:12:07;3.00;;;1.33;;
13568;SDS011;6856;51.460;7.158;2023-11-19T03:14:42;1.37;;;1.20;;
13568;SDS011;6856;51.460;7.158;2023-11-19T03:17:16;1.80;;;1.10;;
13568;SDS011;6856;51.460;7.158;2023-11-19T03:19:50;2.73;;;1.30;;
13568;SDS011;6856;51.460;7.158;2023-11-19T03:22:24;1.90;;;1.20;;
13568;SDS011;6856;51.460;7.158;2023-11-19T03:24:58;2.60;;;1.27;;
13568;SDS011;6856;51.460;7.158;2023-11-19T03:27:32;2.53;;;1.00;;
13568;SDS011;6856;51.460;7.158;2023-11-19T03:30:09;7.60;;;1.90;;
13568;SDS011;6856;51.460;7.158;2023-11-19T03:32:44;2.37;;;1.43;;
13568;SDS011;6856;51.460;7.158;2023-11-19T03:35:18;2.63;;;1.00;;
13568;SDS011;6856;51.460;7.158;2023-11-19T03:37:51;3.40;;;1.40;;
13568;SDS011;6856;51.460;7.158;2023-11-19T03:40:25;3.07;;;1.13;;
13568;SDS011;6856;51.460;7.158;2023-11-19T03:42:58;3.57;;;1.53;;
13568;SDS011;6856;51.460;7.158;2023-11-19T03:45:33;5.13;;;1.70;;
13568;SDS011;6856;51.460;7.158;2023-11-19T03:48:08;4.97;;;2.03;;
13568;SDS011;6856;51.460;7.158;2023-11-19T03:50:41;4.33;;;1.57;;
13568;SDS011;6856;51.460;7.158;2023-11-19T03:53:15;6.93;;;2.40;;
13568;SDS011;6856;51.460;7.158;2023-11-19T03:55:50;7.03;;;1.97;;
13568;SDS011;6856;51.460;7.158;2023-11-19T03:58:24;4.23;;;1.67;;
13568;SDS011;6856;51.460;7.158;2023-11-19T04:00:59;4.43;;;2.00;;
13568;SDS011;6856;51.460;7.158;2023-11-19T04:03:32;7.03;;;2.13;;
13568;SDS011;6856;51.460;7.158;2023-11-19T04:06:06;5.90;;;2.53;;
13568;SDS011;6856;51.460;7.158;2023-11-19T04:08:41;4.80;;;2.07;;
13568;SDS011;6856;51.460;7.158;2023-11-19T04:11:14;4.00;;;1.97;;
13568;SDS011;6856;51.460;7.158;2023-11-19T04:13:48;5.33;;;2.00;;
13568;SDS011;6856;51.460;7.158;2023-11-19T04:16:27;7.30;;;2.43;;
13568;SDS011;6856;51.460;7.158;2023-11-19T04:19:01;8.73;;;2.27;;
13568;SDS011;6856;51.460;7.158;2023-11-19T04:21:35;5.00;;;2.07;;
13568;SDS011;6856;51.460;7.158;2023-11-19T04:24:12;4.83;;;1.87;;
13568;SDS011;6856;51.460;7.158;2023-11-19T04:26:48;6.53;;;2.33;;
13568;SDS011;6856;51.460;7.158;2023-11-19T04:29:21;7.23;;;2.13;;
13568;SDS011;6856;51.460;7.158;2023-11-19T04:31:57;4.43;;;1.77;;
13568;SDS011;6856;51.460;7.158;2023-11-19T04:34:30;7.17;;;2.27;;
13568;SDS011;6856;51.460;7.158;2023-11-19T04:37:05;5.77;;;2.30;;
13568;SDS011;6856;51.460;7.158;2023-11-19T04:39:45;4.30;;;1.97;;
13568;SDS011;6856;51.460;7.158;2023-11-19T04:42:19;6.33;;;2.10;;
13568;SDS011;6856;51.460;7.158;2023-11-19T04:44:57;8.53;;;2.70;;
13568;SDS011;6856;51.460;7.158;2023-11-19T04:47:32;9.30;;;3.47;;
13568;SDS011;6856;51.460;7.158;2023-11-19T04:50:06;9.23;;;2.30;;
13568;SDS011;6856;51.460;7.158;2023-11-19T04:52:42;6.63;;;2.60;;
13568;SDS011;6856;51.460;7.158;2023-11-19T04:55:17;6.40;;;2.50;;
13568;SDS011;6856;51.460;7.158;2023-11-19T04:57:50;9.10;;;2.67;;
13568;SDS011;6856;51.460;7.158;2023-11-19T05:00:31;6.93;;;2.60;;
13568;SDS011;6856;51.460;7.158;2023-11-19T05:03:06;6.77;;;2.23;;
13568;SDS011;6856;51.460;7.158;2023-11-19T05:05:41;7.20;;;2.50;;
13568;SDS011;6856;51.460;7.158;2023-11-19T05:08:16;10.40;;;3.20;;
13568;SDS011;6856;51.460;7.158;2023-11-19T05:10:50;9.63;;;2.97;;
13568;SDS011;6856;51.460;7.158;2023-11-19T05:13:23;9.90;;;2.80;;
13568;SDS011;6856;51.460;7.158;2023-11-19T05:16:00;8.03;;;2.80;;
13568;SDS011;6856;51.460;7.158;2023-11-19T05:18:35;10.43;;;2.87;;
13568;SDS011;6856;51.460;7.158;2023-11-19T05:21:11;7.20;;;2.47;;
13568;SDS011;6856;51.460;7.158;2023-11-19T05:23:45;8.53;;;2.73;;
13568;SDS011;6856;51.460;7.158;2023-11-19T05:26:19;9.70;;;3.57;;
13568;SDS011;6856;51.460;7.158;2023-11-19T05:28:54;8.23;;;3.00;;
13568;SDS011;6856;51.460;7.158;2023-11-19T05:31:28;11.87;;;2.97;;
13568;SDS011;6856;51.460;7.158;2023-11-19T05:34:08;8.87;;;3.00;;
13568;SDS011;6856;51.460;7.158;2023-11-19T05:36:42;10.30;;;2.97;;
13568;SDS011;6856;51.460;7.158;2023-11-19T05:39:16;7.90;;;3.13;;
13568;SDS011;6856;51.460;7.158;2023-11-19T05:41:54;7.53;;;2.50;;
13568;SDS011;6856;51.460;7.158;2023-11-19T05:44:30;11.23;;;4.17;;
13568;SDS011;6856;51.460;7.158;2023-11-19T05:47:04;8.87;;;2.97;;
13568;SDS011;6856;51.460;7.158;2023-11-19T05:49:40;8.33;;;2.80;;
13568;SDS011;6856;51.460;7.158;2023-11-19T05:52:14;8.07;;;3.00;;
13568;SDS011;6856;51.460;7.158;2023-11-19T05:54:48;8.33;;;3.27;;
13568;SDS011;6856;51.460;7.158;2023-11-19T05:57:23;6.53;;;2.03;;
13568;SDS011;6856;51.460;7.158;2023-11-19T05:59:57;9.90;;;2.97;;
13568;SDS011;6856;51.460;7.158;2023-11-19T06:02:32;6.90;;;2.97;;
13568;SDS011;6856;51.460;7.158;2023-11-19T06:05:10;8.70;;;3.00;;
13568;SDS011;6856;51.460;7.158;2023-11-19T06:07:44;7.10;;;2.60;;
13568;SDS011;6856;51.460;7.158;2023-11-19T06:10:18;7.27;;;2.80;;
13568;SDS011;6856;51.460;7.158;2023-11-19T06:12:52;8.83;;;3.03;;
13568;SDS011;6856;51.460;7.158;2023-11-19T06:15:27;7.13;;;2.43;;
13568;SDS011;6856;51.460;7.158;2023-11-19T06:18:01;11.00;;;4.60;;
13568;SDS011;6856;51.460;7.158;2023-11-19T06:20:38;8.63;;;3.07;;
13568;SDS011;6856;51.460;7.158;2023-11-19T06:23:14;8.53;;;3.37;;
13568;SDS011;6856;51.460;7.158;2023-11-19T06:25:48;9.93;;;3.20;;
13568;SDS011;6856;51.460;7.158;2023-11-19T06:28:22;7.93;;;3.10;;
13568;SDS011;6856;51.460;7.158;2023-11-19T06:30:56;11.57;;;3.43;;
13568;SDS011;6856;51.460;7.158;2023-11-19T06:33:29;8.87;;;3.17;;
13568;SDS011;6856;51.460;7.158;2023-11-19T06:36:06;7.10;;;2.70;;
13568;SDS011;6856;51.460;7.158;2023-11-19T06:38:40;10.83;;;3.27;;
13568;SDS011;6856;51.460;7.158;2023-11-19T06:41:14;7.80;;;3.10;;
13568;SDS011;6856;51.460;7.158;2023-11-19T06:43:48;10.50;;;3.47;;
13568;SDS011;6856;51.460;7.158;2023-11-19T06:46:22;6.97;;;2.77;;
13568;SDS011;6856;51.460;7.158;2023-11-19T06:48:56;9.03;;;3.37;;
13568;SDS011;6856;51.460;7.158;2023-11-19T06:51:35;7.97;;;3.20;;
13568;SDS011;6856;51.460;7.158;2023-11-19T06:54:14;8.00;;;3.53;;
13568;SDS011;6856;51.460;7.158;2023-11-19T06:56:48;9.87;;;3.57;;
13568;SDS011;6856;51.460;7.158;2023-11-19T06:59:22;7.60;;;2.83;;
13568;SDS011;6856;51.460;7.158;2023-11-19T07:01:55;10.00;;;3.30;;
13568;SDS011;6856;51.460;7.158;2023-11-19T07:04:31;9.53;;;3.17;;
13568;SDS011;6856;51.460;7.158;2023-11-19T07:07:07;11.60;;;3.90;;
13568;SDS011;6856;51.460;7.158;2023-11-19T07:09:41;9.60;;;3.80;;
13568;SDS011;6856;51.460;7.158;2023-11-19T07:12:15;9.10;;;2.93;;
13568;SDS011;6856;51.460;7.158;2023-11-19T07:14:48;10.83;;;3.27;;
13568;SDS011;6856;51.460;7.158;2023-11-19T07:17:22;8.20;;;2.97;;
13568;SDS011;6856;51.460;7.158;2023-11-19T07:19:56;10.60;;;3.20;;
13568;SDS011;6856;51.460;7.158;2023-11-19T07:22:32;9.27;;;3.27;;
13568;SDS011;6856;51.460;7.158;2023-11-19T07:25:06;11.93;;;3.47;;
13568;SDS011;6856;51.460;7.158;2023-11-19T07:27:40;10.70;;;3.07;;
13568;SDS011;6856;51.460;7.158;2023-11-19T07:30:14;7.77;;;2.97;;
13568;SDS011;6856;51.460;7.158;2023-11-19T07:32:48;10.20;;;2.77;;
13568;SDS011;6856;51.460;7.158;2023-11-19T07:35:22;8.57;;;2.70;;
13568;SDS011;6856;51.460;7.158;2023-11-19T07:37:58;8.33;;;3.00;;
13568;SDS011;6856;51.460;7.158;2023-11-19T07:40:31;10.40;;;2.80;;
13568;SDS011;6856;51.460;7.158;2023-11-19T07:43:05;8.70;;;3.40;;
13568;SDS011;6856;51.460;7.158;2023-11-19T07:45:39;8.43;;;3.23;;
13568;SDS011;6856;51.460;7.158;2023-11-19T07:48:17;13.17;;;4.03;;
13568;SDS011;6856;51.460;7.158;2023-11-19T07:50:55;8.80;;;3.07;;
13568;SDS011;6856;51.460;7.158;2023-11-19T07:53:30;7.43;;;2.90;;
13568;SDS011;6856;51.460;7.158;2023-11-19T07:56:04;9.87;;;2.93;;
13568;SDS011;6856;51.460;7.158;2023-11-19T07:58:39;10.13;;;3.43;;
13568;SDS011;6856;51.460;7.158;2023-11-19T08:01:15;8.87;;;2.97;;
13568;SDS011;6856;51.460;7.158;2023-11-19T08:03:50;11.53;;;2.67;;
13568;SDS011;6856;51.460;7.158;2023-11-19T08:06:26;8.67;;;3.53;;
13568;SDS011;6856;51.460;7.158;2023-11-19T08:09:03;10.57;;;3.40;;
13568;SDS011;6856;51.460;7.158;2023-11-19T08:11:38;7.63;;;2.90;;
13568;SDS011;6856;51.460;7.158;2023-11-19T08:14:13;9.90;;;3.17;;
13568;SDS011;6856;51.460;7.158;2023-11-19T08:16:47;8.00;;;2.73;;
13568;SDS011;6856;51.460;7.158;2023-11-19T08:19:20;10.73;;;3.33;;
13568;SDS011;6856;51.460;7.158;2023-11-19T08:21:54;12.10;;;3.60;;
13568;SDS011;6856;51.460;7.158;2023-11-19T08:24:29;11.30;;;3.30;;
13568;SDS011;6856;51.460;7.158;2023-11-19T08:27:03;8.17;;;3.03;;
13568;SDS011;6856;51.460;7.158;2023-11-19T08:29:38;9.73;;;3.20;;
13568;SDS011;6856;51.460;7.158;2023-11-19T08:32:11;11.73;;;3.47;;
13568;SDS011;6856;51.460;7.158;2023-11-19T08:34:48;11.33;;;3.33;;
13568;SDS011;6856;51.460;7.158;2023-11-19T08:37:22;8.83;;;2.93;;
13568;SDS011;6856;51.460;7.158;2023-11-19T08:39:59;8.10;;;3.23;;
13568;SDS011;6856;51.460;7.158;2023-11-19T08:42:33;8.73;;;3.50;;
13568;SDS011;6856;51.460;7.158;2023-11-19T08:45:07;10.03;;;3.57;;
13568;SDS011;6856;51.460;7.158;2023-11-19T08:47:42;9.37;;;3.37;;
13568;SDS011;6856;51.460;7.158;2023-11-19T08:50:16;9.50;;;3.97;;
13568;SDS011;6856;51.460;7.158;2023-11-19T08:52:51;10.93;;;3.60;;
13568;SDS011;6856;51.460;7.158;2023-11-19T08:55:26;10.10;;;4.07;;
13568;SDS011;6856;51.460;7.158;2023-11-19T08:58:00;11.43;;;3.67;;
13568;SDS011;6856;51.460;7.158;2023-11-19T09:00:34;9.90;;;3.33;;
13568;SDS011;6856;51.460;7.158;2023-11-19T09:03:08;10.13;;;3.60;;
13568;SDS011;6856;51.460;7.158;2023-11-19T09:05:42;12.93;;;3.63;;
13568;SDS011;6856;51.460;7.158;2023-11-19T09:08:16;11.80;;;4.17;;
13568;SDS011;6856;51.460;7.158;2023-11-19T09:10:52;11.50;;;3.50;;
13568;SDS011;6856;51.460;7.158;2023-11-19T09:13:25;10.00;;;3.77;;
13568;SDS011;6856;51.460;7.158;2023-11-19T09:15:59;11.83;;;4.47;;
13568;SDS011;6856;51.460;7.158;2023-11-19T09:18:35;13.63;;;4.20;;
13568;SDS011;6856;51.460;7.158;2023-11-19T09:21:10;8.90;;;3.77;;
13568;SDS011;6856;51.460;7.158;2023-11-19T09:23:44;11.33;;;3.60;;
13568;SDS011;6856;51.460;7.158;2023-11-19T09:26:21;11.90;;;3.57;;
13568;SDS011;6856;51.460;7.158;2023-11-19T09:28:55;10.20;;;3.70;;
13568;SDS011;6856;51.460;7.158;2023-11-19T09:31:29;9.57;;;3.60;;
13568;SDS011;6856;51.460;7.158;2023-11-19T09:34:03;9.37;;;3.77;;
13568;SDS011;6856;51.460;7.158;2023-11-19T09:36:38;10.13;;;3.57;;
13568;SDS011;6856;51.460;7.158;2023-11-19T09:39:15;11.47;;;3.83;;
13568;SDS011;6856;51.460;7.158;2023-11-19T09:41:51;9.20;;;3.90;;
13568;SDS011;6856;51.460;7.158;2023-11-19T09:44:25;11.00;;;4.10;;
13568;SDS011;6856;51.460;7.158;2023-11-19T09:47:00;12.27;;;4.80;;
13568;SDS011;6856;51.460;7.158;2023-11-19T09:49:33;9.03;;;3.60;;
13568;SDS011;6856;51.460;7.158;2023-11-19T09:52:09;11.33;;;4.03;;
13568;SDS011;6856;51.460;7.158;2023-11-19T09:54:43;9.77;;;3.70;;
13568;SDS011;6856;51.460;7.158;2023-11-19T09:57:19;14.37;;;3.87;;
13568;SDS011;6856;51.460;7.158;2023-11-19T09:59:56;10.43;;;3.90;;
13568;SDS011;6856;51.460;7.158;2023-11-19T10:02:30;10.70;;;4.37;;
13568;SDS011;6856;51.460;7.158;2023-11-19T10:05:08;12.53;;;3.90;;
13568;SDS011;6856;51.460;7.158;2023-11-19T10:07:44;11.73;;;4.27;;
13568;SDS011;6856;51.460;7.158;2023-11-19T10:10:18;15.57;;;4.17;;
13568;SDS011;6856;51.460;7.158;2023-11-19T10:12:55;10.77;;;3.90;;
13568;SDS011;6856;51.460;7.158;2023-11-19T10:15:33;6.50;;;3.00;;
13568;SDS011;6856;51.460;7.158;2023-11-19T10:18:10;8.47;;;3.57;;
13568;SDS011;6856;51.460;7.158;2023-11-19T10:20:46;12.53;;;3.53;;
13568;SDS011;6856;51.460;7.158;2023-11-19T10:23:20;10.97;;;4.03;;
13568;SDS011;6856;51.460;7.158;2023-11-19T10:25:54;14.87;;;4.07;;
13568;SDS011;6856;51.460;7.158;2023-11-19T10:28:41;9.93;;;3.87;;
13568;SDS011;6856;51.460;7.158;2023-11-19T10:31:17;11.93;;;4.00;;
13568;SDS011;6856;51.460;7.158;2023-11-19T10:33:56;9.10;;;3.50;;
13568;SDS011;6856;51.460;7.158;2023-11-19T10:36:37;11.73;;;3.47;;
13568;SDS011;6856;51.460;7.158;2023-11-19T10:39:13;9.43;;;3.33;;
13568;SDS011;6856;51.460;7.158;2023-11-19T10:41:47;11.77;;;3.30;;
13568;SDS011;6856;51.460;7.158;2023-11-19T10:47:16;10.60;;;3.73;;
13568;SDS011;6856;51.460;7.158;2023-11-19T10:50:09;13.43;;;3.40;;
13568;SDS011;6856;51.460;7.158;2023-11-19T10:52:42;9.47;;;3.57;;
13568;SDS011;6856;51.460;7.158;2023-11-19T10:55:19;12.20;;;3.57;;
13568;SDS011;6856;51.460;7.158;2023-11-19T10:57:59;8.90;;;3.27;;
13568;SDS011;6856;51.460;7.158;2023-11-19T11:00:38;11.97;;;3.70;;
13568;SDS011;6856;51.460;7.158;2023-11-19T11:03:18;8.37;;;3.60;;
13568;SDS011;6856;51.460;7.158;2023-11-19T11:05:54;10.90;;;3.27;;
13568;SDS011;6856;51.460;7.158;2023-11-19T11:08:29;11.63;;;3.97;;
13568;SDS011;6856;51.460;7.158;2023-11-19T11:11:04;8.67;;;3.33;;
13568;SDS011;6856;51.460;7.158;2023-11-19T11:13:41;6.80;;;2.83;;
13568;SDS011;6856;51.460;7.158;2023-11-19T11:16:19;9.63;;;3.70;;
13568;SDS011;6856;51.460;7.158;2023-11-19T11:18:56;9.80;;;3.70;;
13568;SDS011;6856;51.460;7.158;2023-11-19T11:21:31;9.30;;;3.17;;
13568;SDS011;6856;51.460;7.158;2023-11-19T11:24:21;10.20;;;3.30;;
13568;SDS011;6856;51.460;7.158;2023-11-19T11:28:05;10.43;;;3.70;;
13568;SDS011;6856;51.460;7.158;2023-11-19T11:31:08;11.60;;;3.40;;
13568;SDS011;6856;51.460;7.158;2023-11-19T11:34:03;9.17;;;3.47;;
13568;SDS011;6856;51.460;7.158;2023-11-19T11:37:09;8.70;;;3.73;;
13568;SDS011;6856;51.460;7.158;2023-11-19T11:39:56;12.40;;;3.90;;
13568;SDS011;6856;51.460;7.158;2023-11-19T11:42:33;7.50;;;2.83;;
13568;SDS011;6856;51.460;7.158;2023-11-19T11:45:08;8.67;;;3.10;;
13568;SDS011;6856;51.460;7.158;2023-11-19T11:48:08;11.27;;;3.50;;
13568;SDS011;6856;51.460;7.158;2023-11-19T11:50:49;8.63;;;3.27;;
13568;SDS011;6856;51.460;7.158;2023-11-19T11:53:26;9.23;;;3.73;;
13568;SDS011;6856;51.460;7.158;2023-11-19T11:55:59;9.67;;;3.30;;
13568;SDS011;6856;51.460;7.158;2023-11-19T11:58:35;10.23;;;3.60;;
13568;SDS011;6856;51.460;7.158;2023-11-19T12:01:17;7.27;;;3.10;;
13568;SDS011;6856;51.460;7.158;2023-11-19T12:03:52;10.13;;;3.43;;
13568;SDS011;6856;51.460;7.158;2023-11-19T12:06:32;13.17;;;3.73;;
13568;SDS011;6856;51.460;7.158;2023-11-19T12:09:06;8.10;;;2.30;;
13568;SDS011;6856;51.460;7.158;2023-11-19T12:11:46;7.43;;;2.87;;
13568;SDS011;6856;51.460;7.158;2023-11-19T12:14:35;8.53;;;3.00;;
13568;SDS011;6856;51.460;7.158;2023-11-19T12:17:47;9.20;;;2.90;;
13568;SDS011;6856;51.460;7.158;2023-11-19T12:20:25;11.77;;;3.20;;
13568;SDS011;6856;51.460;7.158;2023-11-19T12:23:05;9.87;;;2.90;;
13568;SDS011;6856;51.460;7.158;2023-11-19T12:25:41;8.63;;;3.00;;
13568;SDS011;6856;51.460;7.158;2023-11-19T12:28:16;11.80;;;2.87;;
13568;SDS011;6856;51.460;7.158;2023-11-19T12:30:52;10.30;;;3.17;;
13568;SDS011;6856;51.460;7.158;2023-11-19T12:33:28;9.17;;;2.97;;
13568;SDS011;6856;51.460;7.158;2023-11-19T12:36:04;9.20;;;2.90;;
13568;SDS011;6856;51.460;7.158;2023-11-19T12:38:39;5.67;;;2.57;;
13568;SDS011;6856;51.460;7.158;2023-11-19T12:41:18;8.37;;;2.70;;
13568;SDS011;6856;51.460;7.158;2023-11-19T12:43:54;12.90;;;3.37;;
13568;SDS011;6856;51.460;7.158;2023-11-19T12:46:45;9.90;;;2.83;;
13568;SDS011;6856;51.460;7.158;2023-11-19T12:49:19;8.97;;;2.80;;
13568;SDS011;6856;51.460;7.158;2023-11-19T12:51:53;7.47;;;2.47;;
13568;SDS011;6856;51.460;7.158;2023-11-19T12:54:33;9.53;;;3.30;;
13568;SDS011;6856;51.460;7.158;2023-11-19T12:57:08;8.43;;;2.63;;
13568;SDS011;6856;51.460;7.158;2023-11-19T12:59:42;8.90;;;3.47;;
13568;SDS011;6856;51.460;7.158;2023-11-19T13:02:18;11.20;;;3.87;;
13568;SDS011;6856;51.460;7.158;2023-11-19T13:04:51;7.03;;;2.70;;
13568;SDS011;6856;51.460;7.158;2023-11-19T13:07:25;6.33;;;2.67;;
13568;SDS011;6856;51.460;7.158;2023-11-19T13:10:01;7.83;;;2.70;;
13568;SDS011;6856;51.460;7.158;2023-11-19T13:12:35;7.83;;;2.63;;
13568;SDS011;6856;51.460;7.158;2023-11-19T13:15:21;6.27;;;2.50;;
13568;SDS011;6856;51.460;7.158;2023-11-19T13:18:00;7.00;;;2.70;;
13568;SDS011;6856;51.460;7.158;2023-11-19T13:20:34;5.53;;;1.93;;
13568;SDS011;6856;51.460;7.158;2023-11-19T13:23:09;6.60;;;2.30;;
13568;SDS011;6856;51.460;7.158;2023-11-19T13:25:47;4.63;;;1.97;;
13568;SDS011;6856;51.460;7.158;2023-11-19T13:28:20;6.73;;;2.20;;
13568;SDS011;6856;51.460;7.158;2023-11-19T13:30:55;4.57;;;1.70;;
13568;SDS011;6856;51.460;7.158;2023-11-19T13:33:33;7.87;;;2.53;;
13568;SDS011;6856;51.460;7.158;2023-11-19T13:36:08;6.73;;;2.00;;
13568;SDS011;6856;51.460;7.158;2023-11-19T13:38:47;6.83;;;2.37;;
13568;SDS011;6856;51.460;7.158;2023-11-19T13:41:21;5.87;;;2.20;;
13568;SDS011;6856;51.460;7.158;2023-11-19T13:43:55;8.20;;;2.73;;
13568;SDS011;6856;51.460;7.158;2023-11-19T13:46:29;12.50;;;3.20;;
13568;SDS011;6856;51.460;7.158;2023-11-19T13:49:04;7.60;;;2.10;;
13568;SDS011;6856;51.460;7.158;2023-11-19T13:51:38;5.40;;;2.27;;
13568;SDS011;6856;51.460;7.158;2023-11-19T13:54:12;7.73;;;2.47;;
13568;SDS011;6856;51.460;7.158;2023-11-19T13:56:45;7.43;;;2.63;;
13568;SDS011;6856;51.460;7.158;2023-11-19T13:59:20;9.27;;;2.43;;
13568;SDS011;6856;51.460;7.158;2023-11-19T14:01:53;9.40;;;2.60;;
13568;SDS011;6856;51.460;7.158;2023-11-19T14:04:29;8.43;;;2.67;;
13568;SDS011;6856;51.460;7.158;2023-11-19T14:07:03;10.73;;;2.80;;
13568;SDS011;6856;51.460;7.158;2023-11-19T14:09:37;7.90;;;2.97;;
13568;SDS011;6856;51.460;7.158;2023-11-19T14:12:12;6.27;;;2.50;;
13568;SDS011;6856;51.460;7.158;2023-11-19T14:14:46;8.30;;;2.83;;
13568;SDS011;6856;51.460;7.158;2023-11-19T14:17:19;6.77;;;2.37;;
13568;SDS011;6856;51.460;7.158;2023-11-19T14:19:56;6.83;;;2.47;;
13568;SDS011;6856;51.460;7.158;2023-11-19T14:22:30;7.30;;;2.50;;
13568;SDS011;6856;51.460;7.158;2023-11-19T14:25:04;10.33;;;3.30;;
13568;SDS011;6856;51.460;7.158;2023-11-19T14:27:42;8.93;;;2.93;;
13568;SDS011;6856;51.460;7.158;2023-11-19T14:30:18;9.30;;;2.90;;
13568;SDS011;6856;51.460;7.158;2023-11-19T14:32:52;6.50;;;2.30;;
13568;SDS011;6856;51.460;7.158;2023-11-19T14:35:27;8.57;;;3.43;;
13568;SDS011;6856;51.460;7.158;2023-11-19T14:38:06;11.17;;;2.80;;
13568;SDS011;6856;51.460;7.158;2023-11-19T14:40:41;6.87;;;2.87;;
13568;SDS011;6856;51.460;7.158;2023-11-19T14:43:15;6.47;;;2.50;;
13568;SDS011;6856;51.460;7.158;2023-11-19T14:45:49;8.23;;;2.53;;
13568;SDS011;6856;51.460;7.158;2023-11-19T14:48:26;7.77;;;2.80;;
13568;SDS011;6856;51.460;7.158;2023-11-19T14:51:01;6.17;;;2.13;;
13568;SDS011;6856;51.460;7.158;2023-11-19T14:53:35;5.13;;;2.47;;
13568;SDS011;6856;51.460;7.158;2023-11-19T14:56:10;8.50;;;2.50;;
13568;SDS011;6856;51.460;7.158;2023-11-19T14:58:44;5.73;;;2.47;;
13568;SDS011;6856;51.460;7.158;2023-11-19T15:01:19;7.87;;;2.50;;
13568;SDS011;6856;51.460;7.158;2023-11-19T15:03:53;6.53;;;2.17;;
13568;SDS011;6856;51.460;7.158;2023-11-19T15:06:32;5.77;;;2.07;;
13568;SDS011;6856;51.460;7.158;2023-11-19T15:09:05;5.27;;;2.03;;
13568;SDS011;6856;51.460;7.158;2023-11-19T15:11:41;7.50;;;2.87;;
13568;SDS011;6856;51.460;7.158;2023-11-19T15:14:14;7.83;;;2.57;;
13568;SDS011;6856;51.460;7.158;2023-11-19T15:16:50;13.20;;;3.50;;
13568;SDS011;6856;51.460;7.158;2023-11-19T15:19:24;7.67;;;2.83;;
13568;SDS011;6856;51.460;7.158;2023-11-19T15:21:59;8.23;;;3.43;;
13568;SDS011;6856;51.460;7.158;2023-11-19T15:24:35;7.07;;;2.67;;
13568;SDS011;6856;51.460;7.158;2023-11-19T15:27:12;7.97;;;2.87;;
13568;SDS011;6856;51.460;7.158;2023-11-19T15:29:46;6.63;;;3.00;;
13568;SDS011;6856;51.460;7.158;2023-11-19T15:32:19;9.03;;;2.53;;
13568;SDS011;6856;51.460;7.158;2023-11-19T15:34:54;8.87;;;2.93;;
13568;SDS011;6856;51.460;7.158;2023-11-19T15:37:29;10.60;;;3.40;;
13568;SDS011;6856;51.460;7.158;2023-11-19T15:40:03;8.47;;;3.33;;
13568;SDS011;6856;51.460;7.158;2023-11-19T15:42:39;10.87;;;2.97;;
13568;SDS011;6856;51.460;7.158;2023-11-19T15:45:14;5.70;;;2.73;;
13568;SDS011;6856;51.460;7.158;2023-11-19T15:47:49;6.97;;;2.63;;
13568;SDS011;6856;51.460;7.158;2023-11-19T15:50:23;5.47;;;2.20;;
13568;SDS011;6856;51.460;7.158;2023-11-19T15:52:59;8.27;;;2.80;;
13568;SDS011;6856;51.460;7.158;2023-11-19T15:55:33;7.23;;;2.87;;